createdAt,value
2022-12-18T00:00:11.476Z,102865.40
2022-12-18T00:03:03.035Z,102863.60
2022-12-18T00:05:33.181Z,102869.20
2022-12-18T00:08:02.486Z,102870.00
2022-12-18T00:10:31.403Z,102869.80
2022-12-18T00:13:02.562Z,102865.80
2022-12-18T00:15:39.240Z,102871.80
2022-12-18T00:18:07.985Z,102872.60
2022-12-18T00:20:41.304Z,102872.40
2022-12-18T00:23:10.783Z,102873.80
2022-12-18T00:25:39.674Z,102879.40
2022-12-18T00:28:08.674Z,102883.00
2022-12-18T00:30:37.356Z,102891.40
2022-12-18T00:33:05.982Z,102897.60
2022-12-18T00:35:34.834Z,102893.20
2022-12-18T00:38:03.518Z,102892.00
2022-12-18T00:40:32.409Z,102900.80
2022-12-18T00:43:01.096Z,102901.80
2022-12-18T00:45:32.728Z,102904.40
2022-12-18T00:48:01.346Z,102905.60
2022-12-18T00:50:30.330Z,102906.20
2022-12-18T00:52:58.921Z,102908.40
2022-12-18T00:55:28.126Z,102913.80
2022-12-18T00:57:56.904Z,102914.20
2022-12-18T01:00:25.592Z,102919.80
2022-12-18T01:02:54.368Z,102921.40
2022-12-18T01:05:23.477Z,102925.20
2022-12-18T01:07:53.598Z,102925.60
2022-12-18T01:10:23.056Z,102925.40
2022-12-18T01:12:52.421Z,102922.40
2022-12-18T01:15:21.807Z,102929.60
2022-12-18T01:17:53.883Z,102926.60
2022-12-18T01:20:22.774Z,102926.00
2022-12-18T01:22:51.866Z,102928.00
2022-12-18T01:25:21.535Z,102931.40
2022-12-18T01:27:53.333Z,102926.60
2022-12-18T01:30:22.956Z,102924.40
2022-12-18T01:32:52.009Z,102923.20
2022-12-18T01:35:22.059Z,102920.80
2022-12-18T01:37:55.146Z,102923.40
2022-12-18T01:40:24.754Z,102921.80
2022-12-18T01:42:55.696Z,102926.20
2022-12-18T01:45:32.116Z,102930.80
2022-12-18T01:48:07.704Z,102932.80
2022-12-18T01:50:44.197Z,102938.20
2022-12-18T01:53:23.663Z,102945.00
2022-12-18T01:55:57.678Z,102948.60
2022-12-18T01:58:48.031Z,102944.80
2022-12-18T02:01:17.229Z,102944.60
2022-12-18T02:03:47.037Z,102943.80
2022-12-18T02:06:41.501Z,102942.80
2022-12-18T02:09:22.396Z,102945.20
2022-12-18T02:12:02.578Z,102943.40
2022-12-18T02:14:43.195Z,102938.40
2022-12-18T02:17:31.904Z,102939.40
2022-12-18T02:20:35.776Z,102948.60
2022-12-18T02:23:44.196Z,102947.00
2022-12-18T02:26:39.728Z,102948.80
2022-12-18T02:29:31.387Z,102945.00
2022-12-18T02:32:01.601Z,102942.40
2022-12-18T02:34:39.461Z,102945.40
2022-12-18T02:37:15.336Z,102948.20
2022-12-18T02:39:49.447Z,102954.40
2022-12-18T02:42:20.175Z,102957.80
2022-12-18T02:44:54.153Z,102951.40
2022-12-18T02:47:33.071Z,102947.00
2022-12-18T02:50:25.770Z,102946.00
2022-12-18T02:53:15.350Z,102945.60
2022-12-18T02:56:18.745Z,102949.20
2022-12-18T02:59:07.813Z,102950.40
2022-12-18T03:02:13.646Z,102947.60
2022-12-18T03:05:03.758Z,102950.00
2022-12-18T03:07:55.087Z,102951.40
2022-12-18T03:10:31.297Z,102951.40
2022-12-18T03:13:27.575Z,102953.00
2022-12-18T03:15:58.482Z,102959.20
2022-12-18T03:18:43.500Z,102960.60
2022-12-18T03:21:14.859Z,102961.80
2022-12-18T03:23:52.096Z,102964.40
2022-12-18T03:26:25.878Z,102963.40
2022-12-18T03:29:13.869Z,102960.60
2022-12-18T03:31:50.607Z,102965.80
2022-12-18T03:34:28.139Z,102962.20
2022-12-18T03:36:56.724Z,102966.00
2022-12-18T03:39:26.840Z,102974.00
2022-12-18T03:42:41.711Z,102976.20
2022-12-18T03:45:37.225Z,102987.00
2022-12-18T03:48:21.273Z,102984.20
2022-12-18T03:51:10.341Z,102983.20
2022-12-18T03:53:45.278Z,102989.40
2022-12-18T03:56:17.310Z,102997.20
2022-12-18T03:58:49.169Z,103003.20
2022-12-18T04:01:33.179Z,103002.60
2022-12-18T04:04:03.798Z,103010.20
2022-12-18T04:06:36.561Z,103013.00
2022-12-18T04:09:06.077Z,103006.80
2022-12-18T04:11:37.723Z,103005.20
2022-12-18T04:14:07.511Z,103018.20
2022-12-18T04:16:37.144Z,103019.00
2022-12-18T04:19:06.751Z,103025.00
2022-12-18T04:21:40.257Z,103025.80
2022-12-18T04:24:09.757Z,103025.00
2022-12-18T04:26:39.672Z,103027.40
2022-12-18T04:29:16.150Z,103022.60
2022-12-18T04:31:45.135Z,103022.60
2022-12-18T04:34:13.822Z,103019.40
2022-12-18T04:36:47.423Z,103026.80
2022-12-18T04:39:16.623Z,103025.40
2022-12-18T04:41:46.843Z,103031.80
2022-12-18T04:44:15.738Z,103026.40
2022-12-18T04:46:45.194Z,103031.40
2022-12-18T04:49:13.883Z,103035.60
2022-12-18T04:51:42.502Z,103039.60
2022-12-18T04:54:11.097Z,103043.80
2022-12-18T04:56:39.899Z,103046.60
2022-12-18T04:59:08.471Z,103046.60
2022-12-18T05:01:37.174Z,103045.20
2022-12-18T05:04:06.314Z,103041.80
2022-12-18T05:06:35.147Z,103037.80
2022-12-18T05:09:03.935Z,103047.00
2022-12-18T05:11:32.625Z,103045.20
2022-12-18T05:14:01.207Z,103044.60
2022-12-18T05:16:29.843Z,103044.40
2022-12-18T05:18:58.481Z,103037.20
2022-12-18T05:21:27.372Z,103028.80
2022-12-18T05:23:56.056Z,103034.00
2022-12-18T05:26:24.641Z,103025.40
2022-12-18T05:28:53.224Z,103027.40
2022-12-18T05:31:21.899Z,103036.20
2022-12-18T05:33:50.503Z,103042.40
2022-12-18T05:36:19.288Z,103048.20
2022-12-18T05:38:47.972Z,103058.20
2022-12-18T05:41:16.966Z,103065.40
2022-12-18T05:43:45.653Z,103063.60
2022-12-18T05:46:18.887Z,103063.00
2022-12-18T05:48:48.149Z,103067.40
2022-12-18T05:51:21.250Z,103066.60
2022-12-18T05:53:50.639Z,103063.80
2022-12-18T05:56:22.808Z,103065.00
2022-12-18T05:58:56.512Z,103061.80
2022-12-18T06:01:28.436Z,103066.40
2022-12-18T06:03:57.324Z,103068.60
2022-12-18T06:06:30.169Z,103072.20
2022-12-18T06:08:59.759Z,103078.00
2022-12-18T06:11:28.957Z,103079.80
2022-12-18T06:13:59.455Z,103081.00
2022-12-18T06:16:29.968Z,103088.20
2022-12-18T06:19:06.173Z,103088.40
2022-12-18T06:21:36.428Z,103092.40
2022-12-18T06:24:06.090Z,103102.20
2022-12-18T06:26:35.486Z,103111.20
2022-12-18T06:29:04.780Z,103118.80
2022-12-18T06:31:34.163Z,103122.00
2022-12-18T06:34:06.493Z,103120.20
2022-12-18T06:36:35.314Z,103129.00
2022-12-18T06:39:04.892Z,103131.20
2022-12-18T06:41:34.059Z,103134.80
2022-12-18T06:44:02.783Z,103131.80
2022-12-18T06:46:33.344Z,103134.00
2022-12-18T06:49:02.302Z,103142.60
2022-12-18T06:51:31.712Z,103142.40
2022-12-18T06:54:00.288Z,103144.40
2022-12-18T06:56:29.898Z,103157.20
2022-12-18T06:58:58.993Z,103163.60
2022-12-18T07:01:28.062Z,103167.60
2022-12-18T07:04:00.304Z,103167.80
2022-12-18T07:06:30.685Z,103171.60
2022-12-18T07:08:59.789Z,103173.00
2022-12-18T07:11:28.468Z,103176.80
2022-12-18T07:14:00.310Z,103183.40
2022-12-18T07:16:31.715Z,103189.40
2022-12-18T07:19:00.571Z,103199.00
2022-12-18T07:21:30.198Z,103203.80
2022-12-18T07:23:59.173Z,103204.20
2022-12-18T07:26:28.478Z,103209.60
2022-12-18T07:28:58.701Z,103213.60
2022-12-18T07:31:28.492Z,103210.00
2022-12-18T07:33:57.302Z,103210.00
2022-12-18T07:36:27.113Z,103199.00
2022-12-18T07:38:56.145Z,103189.80
2022-12-18T07:41:25.151Z,103198.80
2022-12-18T07:43:53.996Z,103197.20
2022-12-18T07:46:23.492Z,103197.20
2022-12-18T07:48:52.391Z,103199.20
2022-12-18T07:51:21.187Z,103199.80
2022-12-18T07:53:52.070Z,103193.40
2022-12-18T07:56:31.144Z,103194.60
2022-12-18T07:59:01.063Z,103194.00
2022-12-18T08:01:30.176Z,103193.00
2022-12-18T08:03:59.975Z,103191.60
2022-12-18T08:06:28.764Z,103192.00
2022-12-18T08:08:58.795Z,103197.60
2022-12-18T08:11:29.009Z,103193.80
2022-12-18T08:13:59.005Z,103192.80
2022-12-18T08:16:28.648Z,103198.60
2022-12-18T08:18:58.484Z,103202.00
2022-12-18T08:21:31.367Z,103202.00
2022-12-18T08:24:02.628Z,103204.20
2022-12-18T08:26:33.006Z,103200.00
2022-12-18T08:29:02.305Z,103193.20
2022-12-18T08:31:32.586Z,103186.80
2022-12-18T08:34:01.522Z,103180.20
2022-12-18T08:36:31.131Z,103177.60
2022-12-18T08:39:00.227Z,103174.80
2022-12-18T08:41:29.118Z,103175.00
2022-12-18T08:44:16.339Z,103176.60
2022-12-18T08:46:46.051Z,103174.40
2022-12-18T08:49:15.147Z,103177.60
2022-12-18T08:51:44.245Z,103183.60
2022-12-18T08:54:15.178Z,103188.20
2022-12-18T08:56:44.186Z,103191.20
2022-12-18T08:59:19.149Z,103202.40
2022-12-18T09:01:49.157Z,103205.40
2022-12-18T09:04:18.245Z,103201.20
2022-12-18T09:06:48.242Z,103203.80
2022-12-18T09:09:17.844Z,103209.60
2022-12-18T09:11:46.471Z,103209.60
2022-12-18T09:14:15.842Z,103205.20
2022-12-18T09:16:44.460Z,103207.80
2022-12-18T09:19:13.417Z,103207.00
2022-12-18T09:21:47.557Z,103208.20
2022-12-18T09:24:17.467Z,103201.60
2022-12-18T09:26:47.284Z,103204.40
2022-12-18T09:29:18.837Z,103213.60
2022-12-18T09:31:48.321Z,103217.20
2022-12-18T09:34:18.084Z,103217.00
2022-12-18T09:36:47.423Z,103208.80
2022-12-18T09:39:16.458Z,103216.40
2022-12-18T09:41:55.951Z,103216.40
2022-12-18T09:44:45.841Z,103218.40
2022-12-18T09:47:24.939Z,103214.60
2022-12-18T09:50:02.998Z,103217.80
2022-12-18T09:52:41.432Z,103211.00
2022-12-18T09:55:20.642Z,103216.60
2022-12-18T09:58:04.181Z,103217.40
2022-12-18T10:00:33.073Z,103221.00
2022-12-18T10:03:16.966Z,103218.00
2022-12-18T10:06:07.210Z,103218.20
2022-12-18T10:08:45.517Z,103217.40
2022-12-18T10:11:47.796Z,103216.60
2022-12-18T10:14:32.641Z,103212.00
2022-12-18T10:17:29.709Z,103218.40
2022-12-18T10:20:38.129Z,103213.00
2022-12-18T10:23:21.561Z,103216.20
2022-12-18T10:26:12.136Z,103221.80
2022-12-18T10:28:43.115Z,103209.60
2022-12-18T10:31:22.218Z,103212.40
2022-12-18T10:33:56.145Z,103205.20
2022-12-18T10:36:25.883Z,103203.20
2022-12-18T10:38:55.446Z,103192.80
2022-12-18T10:41:28.820Z,103192.40
2022-12-18T10:44:20.685Z,103198.20
2022-12-18T10:47:06.250Z,103204.80
2022-12-18T10:49:49.296Z,103201.40
2022-12-18T10:52:24.250Z,103201.80
2022-12-18T10:55:04.398Z,103191.20
2022-12-18T10:57:42.763Z,103186.80
2022-12-18T11:00:31.695Z,103188.00
2022-12-18T11:03:00.617Z,103177.20
2022-12-18T11:05:35.086Z,103172.60
2022-12-18T11:08:04.930Z,103170.80
2022-12-18T11:10:41.192Z,103168.80
2022-12-18T11:13:23.454Z,103168.60
2022-12-18T11:15:52.672Z,103171.60
2022-12-18T11:18:36.152Z,103183.40
2022-12-18T11:21:12.467Z,103182.40
2022-12-18T11:23:53.968Z,103176.20
2022-12-18T11:26:37.184Z,103173.20
2022-12-18T11:29:16.982Z,103163.20
2022-12-18T11:31:46.976Z,103159.80
2022-12-18T11:34:30.780Z,103157.80
2022-12-18T11:37:02.289Z,103157.20
2022-12-18T11:39:42.998Z,103154.20
2022-12-18T11:42:11.595Z,103141.60
2022-12-18T11:45:00.462Z,103135.00
2022-12-18T11:48:12.344Z,103133.60
2022-12-18T11:50:57.213Z,103132.40
2022-12-18T11:53:28.219Z,103134.20
2022-12-18T11:56:18.746Z,103131.20
2022-12-18T11:59:18.564Z,103127.80
2022-12-18T12:02:04.550Z,103126.40
2022-12-18T12:04:47.274Z,103131.60
2022-12-18T12:07:42.020Z,103131.00
2022-12-18T12:10:56.845Z,103126.40
2022-12-18T12:13:54.609Z,103125.00
2022-12-18T12:16:37.467Z,103115.80
2022-12-18T12:19:27.107Z,103120.40
2022-12-18T12:22:19.446Z,103122.60
2022-12-18T12:25:22.749Z,103123.80
2022-12-18T12:28:31.369Z,103124.40
2022-12-18T12:31:29.696Z,103129.40
2022-12-18T12:34:23.323Z,103130.00
2022-12-18T12:37:13.412Z,103133.20
2022-12-18T12:39:45.748Z,103137.00
2022-12-18T12:42:43.963Z,103152.20
2022-12-18T12:45:32.287Z,103158.00
2022-12-18T12:48:04.182Z,103160.40
2022-12-18T12:50:36.008Z,103160.60
2022-12-18T12:53:10.534Z,103162.20
2022-12-18T12:55:41.904Z,103173.20
2022-12-18T12:58:33.018Z,103173.40
2022-12-18T13:01:42.369Z,103170.40
2022-12-18T13:05:00.401Z,103171.20
2022-12-18T13:07:52.624Z,103175.00
2022-12-18T13:10:22.355Z,103175.60
2022-12-18T13:13:10.747Z,103163.20
2022-12-18T13:18:35.823Z,103165.00
2022-12-18T13:21:26.014Z,103172.40
2022-12-18T13:23:56.937Z,103182.40
2022-12-18T13:26:28.994Z,103179.20
2022-12-18T13:28:59.599Z,103169.00
2022-12-18T13:31:31.109Z,103157.80
2022-12-18T13:34:32.667Z,103163.40
2022-12-18T13:37:33.819Z,103158.00
2022-12-18T13:40:03.830Z,103158.00
2022-12-18T13:42:58.643Z,103153.60
2022-12-18T13:45:42.120Z,103159.60
2022-12-18T13:48:23.350Z,103152.60
2022-12-18T13:51:04.979Z,103142.00
2022-12-18T13:54:44.275Z,103143.60
2022-12-18T13:57:34.602Z,103148.20
2022-12-18T14:00:30.952Z,103150.80
2022-12-18T14:03:00.898Z,103154.20
2022-12-18T14:05:32.319Z,103160.40
2022-12-18T14:08:10.529Z,103169.80
2022-12-18T14:10:49.912Z,103179.20
2022-12-18T14:13:32.793Z,103190.40
2022-12-18T14:16:08.654Z,103195.80
2022-12-18T14:18:40.180Z,103185.60
2022-12-18T14:21:37.919Z,103180.60
2022-12-18T14:24:22.789Z,103175.60
2022-12-18T14:26:52.290Z,103162.80
2022-12-18T14:29:31.850Z,103162.60
2022-12-18T14:32:19.020Z,103158.40
2022-12-18T14:34:51.893Z,103158.00
2022-12-18T14:37:28.517Z,103166.20
2022-12-18T14:40:10.564Z,103160.60
2022-12-18T14:42:40.018Z,103157.40
2022-12-18T14:45:41.459Z,103146.60
2022-12-18T14:48:23.946Z,103146.60
2022-12-18T14:51:16.898Z,103144.00
2022-12-18T14:54:01.527Z,103145.20
2022-12-18T14:56:36.701Z,103142.80
2022-12-18T14:59:16.994Z,103145.00
2022-12-18T15:02:32.460Z,103151.20
2022-12-18T15:05:30.353Z,103138.60
2022-12-18T15:08:01.948Z,103136.00
2022-12-18T15:10:33.937Z,103140.80
2022-12-18T15:13:03.784Z,103135.00
2022-12-18T15:15:38.438Z,103130.60
2022-12-18T15:18:22.353Z,103122.80
2022-12-18T15:21:12.520Z,103114.60
2022-12-18T15:23:46.965Z,103103.20
2022-12-18T15:26:18.923Z,103103.80
2022-12-18T15:28:52.024Z,103109.00
2022-12-18T15:31:31.125Z,103104.20
2022-12-18T15:34:00.765Z,103102.80
2022-12-18T15:36:30.790Z,103104.20
2022-12-18T15:39:05.189Z,103106.80
2022-12-18T15:41:37.686Z,103115.80
2022-12-18T15:44:26.701Z,103117.80
2022-12-18T15:46:55.427Z,103116.40
2022-12-18T15:49:24.557Z,103112.40
2022-12-18T15:51:57.933Z,103111.80
2022-12-18T15:54:45.865Z,103116.60
2022-12-18T15:57:24.074Z,103125.40
2022-12-18T15:59:57.569Z,103126.60
2022-12-18T16:02:27.264Z,103127.80
2022-12-18T16:04:56.078Z,103127.40
2022-12-18T16:07:28.140Z,103141.40
2022-12-18T16:10:00.853Z,103142.60
2022-12-18T16:12:31.551Z,103144.60
2022-12-18T16:15:00.135Z,103142.00
2022-12-18T16:17:28.930Z,103143.80
2022-12-18T16:19:57.671Z,103149.00
2022-12-18T16:22:30.401Z,103150.00
2022-12-18T16:24:59.337Z,103152.00
2022-12-18T16:27:28.280Z,103152.20
2022-12-18T16:29:56.964Z,103148.00
2022-12-18T16:32:25.652Z,103152.40
2022-12-18T16:34:54.338Z,103146.60
2022-12-18T16:37:22.922Z,103145.00
2022-12-18T16:39:51.632Z,103140.20
2022-12-18T16:42:21.461Z,103135.60
2022-12-18T16:44:50.642Z,103141.60
2022-12-18T16:47:20.440Z,103142.20
2022-12-18T16:49:53.117Z,103140.40
2022-12-18T16:52:22.723Z,103132.60
2022-12-18T16:54:51.309Z,103131.40
2022-12-18T16:57:24.655Z,103123.20
2022-12-18T16:59:54.415Z,103117.40
2022-12-18T17:02:27.308Z,103114.00
2022-12-18T17:04:58.774Z,103108.40
2022-12-18T17:07:28.690Z,103107.20
2022-12-18T17:09:58.286Z,103103.00
2022-12-18T17:12:27.784Z,103109.60
2022-12-18T17:14:56.674Z,103112.40
2022-12-18T17:17:25.179Z,103104.60
2022-12-18T17:19:54.152Z,103104.40
2022-12-18T17:22:25.974Z,103102.60
2022-12-18T17:24:54.904Z,103102.40
2022-12-18T17:27:23.800Z,103097.00
2022-12-18T17:29:52.584Z,103098.40
2022-12-18T17:32:21.486Z,103099.20
2022-12-18T17:34:50.059Z,103096.40
2022-12-18T17:37:20.052Z,103097.20
2022-12-18T17:39:48.763Z,103103.80
2022-12-18T17:42:18.793Z,103095.20
2022-12-18T17:44:47.575Z,103088.60
2022-12-18T17:47:16.372Z,103085.80
2022-12-18T17:49:45.357Z,103095.60
2022-12-18T17:52:14.349Z,103079.40
2022-12-18T17:54:44.172Z,103074.40
2022-12-18T17:57:12.749Z,103073.60
2022-12-18T17:59:41.436Z,103082.60
2022-12-18T18:02:12.401Z,103092.40
2022-12-18T18:04:41.790Z,103094.60
2022-12-18T18:07:10.475Z,103093.60
2022-12-18T18:09:39.564Z,103099.60
2022-12-18T18:12:28.215Z,103092.00
2022-12-18T18:14:57.111Z,103090.20
2022-12-18T18:17:26.308Z,103093.60
2022-12-18T18:19:55.197Z,103098.20
2022-12-18T18:22:23.986Z,103092.80
2022-12-18T18:24:53.491Z,103091.60
2022-12-18T18:27:22.487Z,103086.40
2022-12-18T18:29:51.376Z,103085.80
2022-12-18T18:32:19.968Z,103089.80
2022-12-18T18:34:48.651Z,103093.20
2022-12-18T18:37:17.245Z,103084.00
2022-12-18T18:39:45.924Z,103085.00
2022-12-18T18:42:14.708Z,103090.20
2022-12-18T18:44:48.715Z,103098.60
2022-12-18T18:47:17.924Z,103100.00
2022-12-18T18:49:46.617Z,103110.80
2022-12-18T18:52:15.704Z,103114.00
2022-12-18T18:55:03.545Z,103110.40
2022-12-18T18:57:34.647Z,103112.20
2022-12-18T19:00:04.709Z,103112.60
2022-12-18T19:02:33.392Z,103116.60
2022-12-18T19:05:02.484Z,103118.80
2022-12-18T19:07:31.450Z,103108.60
2022-12-18T19:10:04.388Z,103101.40
2022-12-18T19:12:54.146Z,103097.00
2022-12-18T19:15:23.758Z,103091.60
2022-12-18T19:17:53.523Z,103095.40
2022-12-18T19:20:22.458Z,103096.00
2022-12-18T19:22:55.924Z,103098.20
2022-12-18T19:25:38.412Z,103094.80
2022-12-18T19:28:21.275Z,103095.20
2022-12-18T19:30:59.892Z,103089.60
2022-12-18T19:33:43.228Z,103083.20
2022-12-18T19:36:14.593Z,103080.60
2022-12-18T19:38:45.228Z,103081.00
2022-12-18T19:41:16.279Z,103075.20
2022-12-18T19:43:45.992Z,103070.00
2022-12-18T19:46:19.320Z,103062.20
2022-12-18T19:48:48.976Z,103062.20
2022-12-18T19:51:26.635Z,103062.80
2022-12-18T19:53:59.372Z,103063.60
2022-12-18T19:56:33.238Z,103064.40
2022-12-18T19:59:04.020Z,103057.00
2022-12-18T20:01:33.167Z,103054.60
2022-12-18T20:04:02.522Z,103059.40
2022-12-18T20:06:56.482Z,103053.40
2022-12-18T20:09:25.274Z,103057.00
2022-12-18T20:11:55.305Z,103052.40
2022-12-18T20:14:24.282Z,103047.20
2022-12-18T20:16:53.334Z,103044.80
2022-12-18T20:19:22.991Z,103042.80
2022-12-18T20:21:51.878Z,103038.00
2022-12-18T20:24:20.541Z,103039.40
2022-12-18T20:26:49.456Z,103039.00
2022-12-18T20:29:18.042Z,103032.60
2022-12-18T20:31:46.718Z,103031.60
2022-12-18T20:34:15.639Z,103022.40
2022-12-18T20:36:45.376Z,103027.00
2022-12-18T20:39:14.342Z,103023.00
2022-12-18T20:41:44.861Z,103022.80
2022-12-18T20:44:22.284Z,103022.80
2022-12-18T20:46:58.290Z,103019.80
2022-12-18T20:49:28.120Z,103016.80
2022-12-18T20:51:58.342Z,103016.20
2022-12-18T20:54:28.208Z,103018.80
2022-12-18T20:56:58.039Z,103015.60
2022-12-18T20:59:27.008Z,103019.00
2022-12-18T21:01:56.118Z,103013.80
2022-12-18T21:04:26.335Z,103013.00
2022-12-18T21:06:59.126Z,103016.20
2022-12-18T21:09:36.931Z,103023.40
2022-12-18T21:12:35.035Z,103021.40
2022-12-18T21:15:12.037Z,102998.40
2022-12-18T21:17:45.115Z,102979.40
2022-12-18T21:20:17.837Z,102969.40
2022-12-18T21:22:49.658Z,102964.40
2022-12-18T21:25:19.395Z,102963.20
2022-12-18T21:27:48.183Z,102971.60
2022-12-18T21:30:18.222Z,102977.80
2022-12-18T21:32:47.528Z,102977.60
2022-12-18T21:35:17.292Z,102974.60
2022-12-18T21:37:46.762Z,102974.00
2022-12-18T21:40:15.380Z,102980.00
2022-12-18T21:43:03.524Z,102983.80
2022-12-18T21:45:32.314Z,102974.40
2022-12-18T21:48:01.919Z,102962.40
2022-12-18T21:50:34.401Z,102949.80
2022-12-18T21:53:03.091Z,102950.00
2022-12-18T21:55:31.978Z,102954.00
2022-12-18T21:58:01.186Z,102959.40
2022-12-18T22:00:30.413Z,102949.00
2022-12-18T22:03:17.508Z,102943.40
2022-12-18T22:05:56.203Z,102944.60
2022-12-18T22:08:40.409Z,102943.20
2022-12-18T22:11:13.870Z,102938.80
2022-12-18T22:13:43.881Z,102941.80
2022-12-18T22:16:12.733Z,102943.40
2022-12-18T22:18:42.894Z,102948.80
2022-12-18T22:21:29.243Z,102961.40
2022-12-18T22:24:02.059Z,102956.20
2022-12-18T22:26:39.835Z,102949.40
2022-12-18T22:29:41.435Z,102944.40
2022-12-18T22:32:18.942Z,102946.00
2022-12-18T22:35:06.840Z,102944.20
2022-12-18T22:37:38.318Z,102942.00
2022-12-18T22:40:08.579Z,102938.20
2022-12-18T22:42:37.946Z,102933.20
2022-12-18T22:45:07.303Z,102922.80
2022-12-18T22:47:36.038Z,102912.00
2022-12-18T22:50:06.161Z,102906.00
2022-12-18T22:52:35.047Z,102903.00
2022-12-18T22:55:04.853Z,102898.40
2022-12-18T22:57:35.594Z,102898.40
2022-12-18T23:00:07.589Z,102895.00
2022-12-18T23:02:36.460Z,102894.00
2022-12-18T23:05:06.614Z,102891.20
2022-12-18T23:07:35.257Z,102880.00
2022-12-18T23:10:04.661Z,102885.20
2022-12-18T23:12:33.756Z,102887.60
2022-12-18T23:15:06.517Z,102882.80
2022-12-18T23:17:35.333Z,102879.00
2022-12-18T23:20:05.197Z,102873.80
2022-12-18T23:22:34.148Z,102868.60
2022-12-18T23:25:03.341Z,102869.80
2022-12-18T23:27:34.995Z,102864.00
2022-12-18T23:30:04.090Z,102855.60
2022-12-18T23:32:32.675Z,102846.40
2022-12-18T23:35:03.511Z,102841.60
2022-12-18T23:37:57.615Z,102833.20
2022-12-18T23:40:22.314Z,102825.60
2022-12-18T23:42:50.872Z,102823.40
2022-12-18T23:45:19.556Z,102811.00
2022-12-18T23:47:50.136Z,102807.80
2022-12-18T23:50:22.102Z,102801.40
2022-12-18T23:53:00.796Z,102793.60
2022-12-18T23:55:40.633Z,102794.60
2022-12-18T23:58:18.347Z,102799.00
